Time;durP1;ratioP1;P1;durP2;ratioP2;P2;SDS_P1;SDS_P2;PMS_P1;PMS_P2;Temp;Humidity;BMP_temperature;BMP_pressure;BME280_temperature;BME280_humidity;BME280_pressure;Samples;Min_cycle;Max_cycle;Signal;HPM_P1;HPM_P2
2022/04/15 00:01:37;;;;;;;6.00;2.90;;;;;;;;;;5046751;28;20206;-62
2022/04/15 00:04:03;;;;;;;6.25;3.47;;;;;;;;;;5068769;28;20069;-61
2022/04/15 00:06:30;;;;;;;8.07;3.15;;;;;;;;;;5048456;28;20131;-62
2022/04/15 00:08:56;;;;;;;10.60;3.80;;;;;;;;;;5055257;28;20059;-63
2022/04/15 00:11:22;;;;;;;10.05;3.72;;;;;;;;;;5048622;28;20048;-63
2022/04/15 00:13:48;;;;;;;7.30;4.22;;;;;;;;;;5050337;28;20063;-61
2022/04/15 00:16:14;;;;;;;7.35;3.78;;;;;;;;;;5047428;28;20044;-61
2022/04/15 00:18:41;;;;;;;8.23;3.00;;;;;;;;;;5045834;28;20045;-61
2022/04/15 00:21:08;;;;;;;5.15;2.15;;;;;;;;;;5046754;28;20045;-62
2022/04/15 00:23:34;;;;;;;6.22;2.15;;;;;;;;;;5047611;28;20037;-61
2022/04/15 00:26:01;;;;;;;4.80;2.40;;;;;;;;;;5046600;28;20518;-62
2022/04/15 00:28:27;;;;;;;4.57;3.10;;;;;;;;;;5052976;28;20068;-63
2022/04/15 00:30:53;;;;;;;6.63;3.22;;;;;;;;;;5047500;28;20383;-63
2022/04/15 00:33:19;;;;;;;4.65;2.70;;;;;;;;;;5048380;28;20041;-61
2022/04/15 00:35:45;;;;;;;8.70;3.35;;;;;;;;;;5046492;28;20040;-62
2022/04/15 00:38:11;;;;;;;8.65;3.92;;;;;;;;;;5050743;28;20060;-62
2022/04/15 00:40:37;;;;;;;9.40;4.35;;;;;;;;;;5050365;28;20434;-62
2022/04/15 00:43:04;;;;;;;10.65;4.13;;;;;;;;;;5032799;28;20037;-62
2022/04/15 00:45:30;;;;;;;13.05;4.78;;;;;;;;;;5050811;28;20041;-62
2022/04/15 00:47:57;;;;;;;11.25;4.20;;;;;;;;;;5056779;28;20029;-62
2022/04/15 00:50:24;;;;;;;12.05;4.68;;;;;;;;;;5051945;28;20052;-61
2022/04/15 00:52:52;;;;;;;13.90;5.55;;;;;;;;;;5054624;28;20094;-61
2022/04/15 00:55:19;;;;;;;18.00;6.00;;;;;;;;;;5053716;28;20102;-62
2022/04/15 00:57:50;;;;;;;18.95;6.60;;;;;;;;;;5049801;28;20402;-62
2022/04/15 01:00:17;;;;;;;21.48;5.45;;;;;;;;;;5053506;28;20513;-62
2022/04/15 01:02:43;;;;;;;13.35;5.57;;;;;;;;;;5050592;28;20045;-62
2022/04/15 01:05:10;;;;;;;16.70;5.03;;;;;;;;;;5054436;28;20041;-62
2022/04/15 01:07:40;;;;;;;13.10;6.05;;;;;;;;;;5052520;28;21288;-62
2022/04/15 01:10:08;;;;;;;14.00;5.55;;;;;;;;;;5052071;28;20482;-61
2022/04/15 01:12:34;;;;;;;13.93;6.80;;;;;;;;;;5057386;28;20040;-62
2022/04/15 01:15:01;;;;;;;14.45;6.43;;;;;;;;;;5054813;28;20080;-62
2022/04/15 01:17:30;;;;;;;21.52;7.32;;;;;;;;;;5058110;28;20099;-61
2022/04/15 01:19:57;;;;;;;17.65;6.45;;;;;;;;;;5051725;28;20033;-61
2022/04/15 01:22:24;;;;;;;19.38;7.05;;;;;;;;;;5054079;28;20045;-63
2022/04/15 01:24:50;;;;;;;22.73;7.72;;;;;;;;;;5057214;28;20036;-62
2022/04/15 01:27:32;;;;;;;17.77;6.45;;;;;;;;;;5053830;28;20037;-62
2022/04/15 01:29:58;;;;;;;15.32;6.35;;;;;;;;;;5051075;28;20127;-62
2022/04/15 01:32:25;;;;;;;14.82;6.65;;;;;;;;;;5054322;28;20048;-61
2022/04/15 01:34:51;;;;;;;18.33;7.65;;;;;;;;;;5050316;28;20048;-62
2022/04/15 01:37:17;;;;;;;19.60;7.32;;;;;;;;;;5050596;28;20131;-63
2022/04/15 01:39:44;;;;;;;18.42;8.00;;;;;;;;;;5054058;28;20040;-64
2022/04/15 01:42:16;;;;;;;20.20;8.57;;;;;;;;;;5050303;28;20491;-62
2022/04/15 01:44:42;;;;;;;14.48;7.40;;;;;;;;;;5056019;28;20600;-61
2022/04/15 01:47:09;;;;;;;12.07;6.43;;;;;;;;;;5051691;28;20036;-62
2022/04/15 01:49:35;;;;;;;12.05;5.35;;;;;;;;;;5051525;28;20036;-62
2022/04/15 01:52:01;;;;;;;9.32;5.03;;;;;;;;;;5051165;28;20037;-62
2022/04/15 01:54:30;;;;;;;9.48;4.45;;;;;;;;;;5055320;28;20048;-63
2022/04/15 01:56:56;;;;;;;6.57;3.63;;;;;;;;;;5053995;28;20072;-63
2022/04/15 01:59:23;;;;;;;5.35;3.22;;;;;;;;;;5051115;28;20045;-61
2022/04/15 02:01:50;;;;;;;5.53;3.20;;;;;;;;;;5052257;28;20045;-61
2022/04/15 02:04:16;;;;;;;5.50;3.17;;;;;;;;;;5051069;28;20036;-61
2022/04/15 02:06:42;;;;;;;8.05;3.70;;;;;;;;;;5057125;28;20033;-62
2022/04/15 02:09:08;;;;;;;8.65;3.95;;;;;;;;;;5049682;28;20040;-62
2022/04/15 02:11:34;;;;;;;6.50;3.03;;;;;;;;;;5039127;28;20060;-63
2022/04/15 02:14:00;;;;;;;5.57;2.33;;;;;;;;;;5052350;28;20048;-61
2022/04/15 02:16:26;;;;;;;6.18;3.35;;;;;;;;;;5051873;28;20134;-61
2022/04/15 02:18:52;;;;;;;4.80;2.88;;;;;;;;;;5050919;28;20037;-62
2022/04/15 02:21:18;;;;;;;9.00;2.92;;;;;;;;;;5047450;28;20041;-62
2022/04/15 02:23:44;;;;;;;4.78;2.38;;;;;;;;;;5049385;28;20093;-63
2022/04/15 02:26:11;;;;;;;6.38;2.20;;;;;;;;;;5048645;28;20055;-63
2022/04/15 02:28:37;;;;;;;5.88;2.10;;;;;;;;;;5047869;28;20052;-62
2022/04/15 02:31:03;;;;;;;4.82;2.20;;;;;;;;;;5050697;28;20120;-62
2022/04/15 02:33:29;;;;;;;4.13;2.65;;;;;;;;;;5052954;28;20052;-64
2022/04/15 02:35:55;;;;;;;6.53;3.30;;;;;;;;;;5047605;28;20037;-62
2022/04/15 02:38:21;;;;;;;5.65;3.00;;;;;;;;;;5053437;28;20041;-63
2022/04/15 02:40:47;;;;;;;3.78;1.40;;;;;;;;;;5057266;28;20456;-61
2022/04/15 02:43:14;;;;;;;2.67;1.45;;;;;;;;;;5050007;28;20082;-63
2022/04/15 02:45:40;;;;;;;3.78;0.88;;;;;;;;;;5056801;28;20036;-62
2022/04/15 02:48:06;;;;;;;2.28;1.40;;;;;;;;;;5051839;28;20521;-61
2022/04/15 02:50:33;;;;;;;4.32;1.80;;;;;;;;;;5050300;28;20048;-61
2022/04/15 02:52:59;;;;;;;2.22;1.10;;;;;;;;;;5053675;28;20479;-62
2022/04/15 02:55:26;;;;;;;2.95;1.25;;;;;;;;;;5053429;28;20051;-60
2022/04/15 02:57:52;;;;;;;2.33;1.27;;;;;;;;;;5051461;28;20094;-61
2022/04/15 03:00:18;;;;;;;3.15;1.40;;;;;;;;;;5051075;28;20486;-60
2022/04/15 03:02:45;;;;;;;2.88;1.60;;;;;;;;;;5051237;28;20469;-62
2022/04/15 03:05:11;;;;;;;3.70;1.55;;;;;;;;;;5051520;28;20033;-62
2022/04/15 03:07:38;;;;;;;3.95;1.50;;;;;;;;;;5063991;28;20095;-61
2022/04/15 03:10:05;;;;;;;4.57;1.00;;;;;;;;;;5048928;28;20111;-62
2022/04/15 03:12:34;;;;;;;2.90;1.25;;;;;;;;;;5050646;28;20028;-62
2022/04/15 03:15:01;;;;;;;3.97;1.35;;;;;;;;;;5052148;28;20064;-62
2022/04/15 03:17:27;;;;;;;3.50;1.50;;;;;;;;;;5050815;28;20737;-61
2022/04/15 03:19:53;;;;;;;5.70;2.75;;;;;;;;;;5049891;28;20039;-61
2022/04/15 03:22:20;;;;;;;5.15;4.10;;;;;;;;;;5070151;28;20045;-63
2022/04/15 03:24:47;;;;;;;3.45;2.00;;;;;;;;;;5049334;28;20032;-62
2022/04/15 03:27:13;;;;;;;3.45;1.17;;;;;;;;;;5046387;28;20068;-62
2022/04/15 03:29:39;;;;;;;3.58;1.20;;;;;;;;;;5050570;28;20443;-62
2022/04/15 03:32:05;;;;;;;4.35;1.30;;;;;;;;;;5052887;28;20056;-61
2022/04/15 03:34:32;;;;;;;3.63;1.55;;;;;;;;;;5049585;28;20040;-62
2022/04/15 03:36:58;;;;;;;3.42;1.88;;;;;;;;;;5048298;28;20072;-62
2022/04/15 03:39:24;;;;;;;4.75;2.83;;;;;;;;;;5050469;28;20037;-61
2022/04/15 03:41:50;;;;;;;5.75;3.95;;;;;;;;;;5050312;28;20503;-62
2022/04/15 03:44:16;;;;;;;5.07;3.90;;;;;;;;;;5033343;28;20068;-62
2022/04/15 03:46:42;;;;;;;2.97;1.77;;;;;;;;;;5054168;28;20391;-61
2022/04/15 03:49:08;;;;;;;3.85;1.83;;;;;;;;;;5051222;28;20456;-61
2022/04/15 03:51:34;;;;;;;4.28;1.55;;;;;;;;;;5047988;28;20098;-61
2022/04/15 03:54:00;;;;;;;4.57;1.58;;;;;;;;;;5056330;28;20125;-62
2022/04/15 03:56:26;;;;;;;2.33;1.02;;;;;;;;;;5053874;28;20055;-62
2022/04/15 03:58:52;;;;;;;3.63;1.65;;;;;;;;;;5051067;28;20037;-62
2022/04/15 04:01:18;;;;;;;3.30;1.42;;;;;;;;;;5051728;28;20115;-62
2022/04/15 04:03:45;;;;;;;5.45;2.13;;;;;;;;;;5049941;28;20064;-62
2022/04/15 04:06:11;;;;;;;5.97;1.80;;;;;;;;;;5051178;28;20036;-62
2022/04/15 04:08:37;;;;;;;4.15;1.60;;;;;;;;;;5030900;28;20075;-62
2022/04/15 04:11:03;;;;;;;2.65;1.00;;;;;;;;;;5046281;28;20045;-62
2022/04/15 04:13:29;;;;;;;2.50;1.30;;;;;;;;;;5055642;28;20036;-62
2022/04/15 04:15:55;;;;;;;2.58;1.17;;;;;;;;;;5055628;28;20123;-61
2022/04/15 04:18:21;;;;;;;2.60;1.23;;;;;;;;;;5035245;28;20051;-62
2022/04/15 04:20:48;;;;;;;3.70;1.38;;;;;;;;;;5052760;28;20433;-62
2022/04/15 04:23:15;;;;;;;2.25;1.42;;;;;;;;;;5058851;28;20040;-61
2022/04/15 04:25:41;;;;;;;5.05;2.17;;;;;;;;;;5053164;28;20036;-62
2022/04/15 04:28:07;;;;;;;10.52;2.83;;;;;;;;;;5055680;28;20115;-63
2022/04/15 04:30:33;;;;;;;4.82;2.80;;;;;;;;;;5057464;28;20037;-62
2022/04/15 04:32:59;;;;;;;8.02;4.80;;;;;;;;;;5056159;28;20045;-62
2022/04/15 04:35:26;;;;;;;7.10;4.30;;;;;;;;;;5054069;28;20399;-62
2022/04/15 04:37:53;;;;;;;6.95;4.72;;;;;;;;;;5054791;28;20044;-62
2022/04/15 04:40:19;;;;;;;11.38;6.80;;;;;;;;;;5054619;28;20040;-61
2022/04/15 04:42:45;;;;;;;10.45;6.82;;;;;;;;;;5054922;28;20040;-62
2022/04/15 04:45:12;;;;;;;11.73;8.57;;;;;;;;;;5055130;28;20048;-63
2022/04/15 04:47:39;;;;;;;11.98;9.55;;;;;;;;;;5056269;28;20083;-63
2022/04/15 04:50:08;;;;;;;12.85;9.63;;;;;;;;;;5057106;28;20120;-62
2022/04/15 04:52:34;;;;;;;16.48;10.30;;;;;;;;;;5057285;28;20072;-62
2022/04/15 04:55:00;;;;;;;16.17;10.10;;;;;;;;;;5057109;28;20430;-63
2022/04/15 04:57:26;;;;;;;16.10;11.35;;;;;;;;;;5054148;28;20414;-61
2022/04/15 04:59:52;;;;;;;18.38;11.98;;;;;;;;;;5051865;28;20044;-62
2022/04/15 05:02:18;;;;;;;17.38;11.50;;;;;;;;;;5058621;28;20387;-61
2022/04/15 05:04:44;;;;;;;19.40;11.98;;;;;;;;;;5051726;28;20525;-62
2022/04/15 05:07:10;;;;;;;19.90;13.07;;;;;;;;;;5054710;28;20403;-62
2022/04/15 05:09:41;;;;;;;19.98;12.50;;;;;;;;;;5049248;28;20064;-63
2022/04/15 05:12:08;;;;;;;20.42;12.50;;;;;;;;;;5053626;28;20049;-62
2022/04/15 05:14:34;;;;;;;17.70;11.43;;;;;;;;;;5050239;28;20037;-62
2022/04/15 05:17:00;;;;;;;16.15;11.60;;;;;;;;;;5076434;28;20120;-63
2022/04/15 05:19:26;;;;;;;19.65;12.18;;;;;;;;;;5052105;28;20033;-62
2022/04/15 05:21:53;;;;;;;18.58;11.77;;;;;;;;;;5054249;28;20051;-63
2022/04/15 05:24:19;;;;;;;20.95;11.82;;;;;;;;;;5033544;28;20067;-63
2022/04/15 05:26:45;;;;;;;19.95;12.52;;;;;;;;;;5050995;28;20055;-64
2022/04/15 05:29:11;;;;;;;23.30;13.02;;;;;;;;;;5050069;28;20057;-62
2022/04/15 05:31:37;;;;;;;21.98;13.18;;;;;;;;;;5051967;28;20107;-63
2022/04/15 05:34:04;;;;;;;23.60;14.43;;;;;;;;;;5054378;28;20048;-62
2022/04/15 05:36:30;;;;;;;22.42;12.88;;;;;;;;;;5051823;28;20174;-62
2022/04/15 05:38:56;;;;;;;22.27;13.70;;;;;;;;;;5033684;28;20037;-62
2022/04/15 05:41:22;;;;;;;21.38;13.98;;;;;;;;;;5048764;28;20033;-61
2022/04/15 05:43:49;;;;;;;19.67;12.88;;;;;;;;;;5031386;28;20494;-63
2022/04/15 05:46:15;;;;;;;19.23;13.45;;;;;;;;;;5053231;28;20370;-64
2022/04/15 05:48:41;;;;;;;21.48;13.65;;;;;;;;;;5050407;28;20112;-61
2022/04/15 05:51:07;;;;;;;21.05;12.68;;;;;;;;;;5048735;28;20388;-62
2022/04/15 05:53:33;;;;;;;21.25;12.27;;;;;;;;;;5050548;28;20056;-63
2022/04/15 05:55:59;;;;;;;20.75;12.98;;;;;;;;;;5041697;28;20046;-61
2022/04/15 05:58:26;;;;;;;22.15;10.70;;;;;;;;;;5050589;28;20150;-60
2022/04/15 06:00:52;;;;;;;19.55;9.38;;;;;;;;;;5052188;28;20043;-61
2022/04/15 06:03:20;;;;;;;18.58;9.57;;;;;;;;;;5055665;28;20060;-60
2022/04/15 06:05:47;;;;;;;21.00;9.10;;;;;;;;;;5050488;28;20041;-60
2022/04/15 06:08:13;;;;;;;14.35;9.02;;;;;;;;;;5053020;28;20072;-61
2022/04/15 06:10:39;;;;;;;14.80;7.63;;;;;;;;;;5056254;28;20379;-61
2022/04/15 06:13:19;;;;;;;14.48;7.65;;;;;;;;;;5049932;28;20087;-61
2022/04/15 06:15:58;;;;;;;18.90;8.60;;;;;;;;;;5057174;28;20049;-60
2022/04/15 06:18:25;;;;;;;17.27;7.60;;;;;;;;;;5053232;28;20516;-62
2022/04/15 06:20:52;;;;;;;19.27;7.60;;;;;;;;;;5049728;28;20037;-62
2022/04/15 06:23:19;;;;;;;15.25;7.40;;;;;;;;;;5049129;28;20040;-61
2022/04/15 06:25:45;;;;;;;19.60;8.38;;;;;;;;;;5060456;28;20041;-62
2022/04/15 06:28:12;;;;;;;16.13;6.93;;;;;;;;;;5060421;28;20033;-62
2022/04/15 06:30:38;;;;;;;14.27;6.68;;;;;;;;;;5055715;28;20461;-62
2022/04/15 06:33:06;;;;;;;17.02;7.97;;;;;;;;;;5050283;28;20048;-63
2022/04/15 06:35:36;;;;;;;13.68;6.65;;;;;;;;;;5048507;28;20072;-62
2022/04/15 06:38:02;;;;;;;16.42;7.13;;;;;;;;;;5054068;28;20059;-61
2022/04/15 06:40:29;;;;;;;13.23;6.43;;;;;;;;;;5051149;28;20045;-62
2022/04/15 06:42:55;;;;;;;16.50;6.85;;;;;;;;;;5051924;28;20041;-61
2022/04/15 06:45:21;;;;;;;14.70;6.53;;;;;;;;;;5050753;28;20075;-62
2022/04/15 06:47:47;;;;;;;11.55;5.80;;;;;;;;;;5048421;28;20532;-62
2022/04/15 06:50:13;;;;;;;11.55;5.97;;;;;;;;;;5053074;28;20170;-61
2022/04/15 06:52:39;;;;;;;16.55;6.88;;;;;;;;;;5050835;28;20044;-62
2022/04/15 06:55:06;;;;;;;16.15;6.18;;;;;;;;;;5035318;28;20376;-63
2022/04/15 06:57:32;;;;;;;13.48;5.93;;;;;;;;;;5051135;28;20041;-62
2022/04/15 06:59:58;;;;;;;11.70;5.85;;;;;;;;;;5058351;28;20526;-63
2022/04/15 07:02:25;;;;;;;9.85;5.43;;;;;;;;;;5052650;28;20474;-63
2022/04/15 07:04:52;;;;;;;14.70;5.25;;;;;;;;;;5050979;28;20033;-62
2022/04/15 07:07:18;;;;;;;13.07;4.90;;;;;;;;;;5050750;28;20045;-62
2022/04/15 07:09:49;;;;;;;9.43;4.40;;;;;;;;;;5056023;28;20091;-61
2022/04/15 07:12:16;;;;;;;11.52;4.25;;;;;;;;;;5066433;28;20043;-60
2022/04/15 07:14:42;;;;;;;12.90;4.50;;;;;;;;;;5053220;28;20355;-60
2022/04/15 07:17:09;;;;;;;9.57;4.47;;;;;;;;;;5065483;28;20036;-61
2022/04/15 07:19:35;;;;;;;11.82;4.80;;;;;;;;;;5056036;28;20037;-62
2022/04/15 07:22:01;;;;;;;12.40;5.10;;;;;;;;;;5052289;28;20045;-62
2022/04/15 07:24:27;;;;;;;13.15;5.05;;;;;;;;;;5059835;28;20360;-62
2022/04/15 07:26:53;;;;;;;12.23;4.38;;;;;;;;;;5056864;28;20490;-62
2022/04/15 07:29:20;;;;;;;10.13;5.00;;;;;;;;;;5059809;28;20067;-63
2022/04/15 07:31:46;;;;;;;9.77;3.95;;;;;;;;;;5062686;28;20128;-62
2022/04/15 07:34:12;;;;;;;10.00;4.50;;;;;;;;;;5063345;28;20036;-62
2022/04/15 07:39:06;;;;;;;8.98;5.18;;;;;;;;;;5049552;28;20119;-62
2022/04/15 07:41:33;;;;;;;12.40;4.50;;;;;;;;;;5055832;28;20041;-62
2022/04/15 07:43:59;;;;;;;12.20;4.90;;;;;;;;;;5050735;28;21493;-62
2022/04/15 07:46:25;;;;;;;10.55;4.93;;;;;;;;;;5060849;28;20097;-63
2022/04/15 07:48:51;;;;;;;14.70;5.10;;;;;;;;;;5034874;28;20037;-62
2022/04/15 07:51:17;;;;;;;12.50;4.20;;;;;;;;;;5052147;28;20388;-63
2022/04/15 07:53:43;;;;;;;13.90;4.57;;;;;;;;;;5058249;28;20115;-63
2022/04/15 07:56:09;;;;;;;11.57;4.38;;;;;;;;;;5054381;28;20052;-62
2022/04/15 07:58:35;;;;;;;9.43;4.55;;;;;;;;;;5073214;28;20037;-62
2022/04/15 08:01:01;;;;;;;11.10;4.55;;;;;;;;;;5063147;28;20071;-62
2022/04/15 08:03:28;;;;;;;10.48;5.03;;;;;;;;;;5056293;28;20120;-62
2022/04/15 08:05:54;;;;;;;10.55;4.72;;;;;;;;;;5063718;28;20060;-61
2022/04/15 08:08:20;;;;;;;10.40;4.18;;;;;;;;;;5070256;28;20028;-62
2022/04/15 08:10:53;;;;;;;11.52;5.13;;;;;;;;;;5060235;28;20380;-62
2022/04/15 08:13:19;;;;;;;9.73;4.00;;;;;;;;;;5067882;28;20037;-63
2022/04/15 08:15:46;;;;;;;10.35;4.05;;;;;;;;;;5069071;28;20429;-62
2022/04/15 08:18:12;;;;;;;8.60;3.90;;;;;;;;;;5061593;28;20037;-62
2022/04/15 08:20:38;;;;;;;12.07;4.22;;;;;;;;;;5059454;28;20053;-61
2022/04/15 08:23:05;;;;;;;11.25;4.78;;;;;;;;;;5057649;28;20047;-61
2022/04/15 08:25:31;;;;;;;12.07;4.93;;;;;;;;;;5060150;28;20124;-62
2022/04/15 08:27:57;;;;;;;10.15;4.93;;;;;;;;;;5059457;28;20485;-62
2022/04/15 08:30:24;;;;;;;9.45;4.60;;;;;;;;;;5056428;28;20091;-62
2022/04/15 08:32:53;;;;;;;14.10;4.63;;;;;;;;;;5059201;28;20036;-63
2022/04/15 08:35:20;;;;;;;12.18;4.43;;;;;;;;;;5055759;28;20040;-62
2022/04/15 08:37:46;;;;;;;9.93;4.65;;;;;;;;;;5062742;28;20064;-62
2022/04/15 08:40:12;;;;;;;11.57;5.03;;;;;;;;;;5057876;28;20597;-62
2022/04/15 08:42:40;;;;;;;8.00;4.90;;;;;;;;;;5057320;28;20506;-62
2022/04/15 08:45:10;;;;;;;10.70;5.07;;;;;;;;;;5058558;28;20087;-62
2022/04/15 08:47:42;;;;;;;12.07;4.93;;;;;;;;;;5061175;28;20053;-63
2022/04/15 08:50:14;;;;;;;12.55;5.22;;;;;;;;;;5059163;28;20068;-62
2022/04/15 08:52:41;;;;;;;11.15;5.35;;;;;;;;;;5057853;28;20076;-63
2022/04/15 08:55:07;;;;;;;11.20;4.82;;;;;;;;;;5061688;28;20032;-61
2022/04/15 08:57:33;;;;;;;11.57;5.20;;;;;;;;;;5051975;28;20049;-60
2022/04/15 09:00:00;;;;;;;12.80;4.63;;;;;;;;;;5081282;28;20045;-63
2022/04/15 09:02:33;;;;;;;8.07;4.50;;;;;;;;;;5065762;28;20048;-63
2022/04/15 09:04:59;;;;;;;;;;;;;;;;;;5062878;28;20064;-62
2022/04/15 09:07:29;;;;;;;13.32;4.85;;;;;;;;;;5055653;28;20010;-62
2022/04/15 09:09:56;;;;;;;12.50;5.22;;;;;;;;;;5059351;28;20044;-63
2022/04/15 09:12:25;;;;;;;10.80;4.47;;;;;;;;;;5055604;28;20466;-62
2022/04/15 09:15:09;;;;;;;10.30;4.82;;;;;;;;;;5066713;28;20506;-62
2022/04/15 09:17:35;;;;;;;10.93;5.25;;;;;;;;;;5058345;28;20106;-61
2022/04/15 09:20:02;;;;;;;11.82;4.88;;;;;;;;;;5059021;28;20131;-62
2022/04/15 09:22:28;;;;;;;12.43;5.15;;;;;;;;;;5054187;28;20044;-62
2022/04/15 09:24:54;;;;;;;11.65;4.88;;;;;;;;;;5056539;28;20043;-62
2022/04/15 09:27:21;;;;;;;13.13;4.80;;;;;;;;;;5053358;28;20075;-62
2022/04/15 09:29:47;;;;;;;8.65;4.38;;;;;;;;;;5072233;28;20056;-61
2022/04/15 09:32:14;;;;;;;11.85;4.70;;;;;;;;;;5071589;28;20132;-63
2022/04/15 09:34:53;;;;;;;9.88;4.68;;;;;;;;;;5058153;28;20036;-62
2022/04/15 09:37:20;;;;;;;7.20;4.25;;;;;;;;;;5055132;28;20037;-62
2022/04/15 09:40:09;;;;;;;12.20;4.90;;;;;;;;;;5058606;28;20105;-63
2022/04/15 09:42:36;;;;;;;10.35;4.40;;;;;;;;;;5054146;28;20121;-63
2022/04/15 09:45:14;;;;;;;9.18;4.45;;;;;;;;;;5054584;28;20041;-61
2022/04/15 09:47:40;;;;;;;11.20;4.93;;;;;;;;;;5060381;28;20045;-62
2022/04/15 09:50:07;;;;;;;7.78;3.95;;;;;;;;;;5071363;28;20055;-62
2022/04/15 09:52:33;;;;;;;9.95;4.28;;;;;;;;;;5071542;28;20052;-62
2022/04/15 09:55:02;;;;;;;8.52;4.22;;;;;;;;;;5069626;28;20101;-61
2022/04/15 09:57:33;;;;;;;7.90;4.15;;;;;;;;;;5051885;28;20063;-62
2022/04/15 10:00:02;;;;;;;8.07;4.40;;;;;;;;;;5069482;28;20063;-62
2022/04/15 10:02:30;;;;;;;5.43;4.00;;;;;;;;;;5069013;28;20127;-62
2022/04/15 10:04:56;;;;;;;6.55;4.00;;;;;;;;;;5069106;28;20115;-63
2022/04/15 10:07:22;;;;;;;6.72;3.55;;;;;;;;;;5070156;28;20047;-62
2022/04/15 10:09:48;;;;;;;5.90;3.00;;;;;;;;;;5052077;28;20044;-61
2022/04/15 10:12:15;;;;;;;7.15;3.90;;;;;;;;;;5052467;28;20577;-63
2022/04/15 10:14:42;;;;;;;6.30;3.92;;;;;;;;;;5069076;28;20372;-62
2022/04/15 10:17:08;;;;;;;9.32;3.92;;;;;;;;;;5068573;28;20032;-62
2022/04/15 10:19:34;;;;;;;6.75;3.75;;;;;;;;;;5068406;28;20147;-62
2022/04/15 10:22:01;;;;;;;6.85;3.72;;;;;;;;;;5069859;28;20050;-62
2022/04/15 10:24:27;;;;;;;6.90;3.78;;;;;;;;;;5068728;28;20044;-62
2022/04/15 10:26:59;;;;;;;6.13;3.38;;;;;;;;;;5052222;28;20048;-62
2022/04/15 10:29:25;;;;;;;6.55;3.13;;;;;;;;;;5069551;28;20110;-62
2022/04/15 10:31:54;;;;;;;7.53;3.65;;;;;;;;;;5068363;28;20140;-63
2022/04/15 10:34:21;;;;;;;7.78;3.67;;;;;;;;;;5069787;28;20044;-62
2022/04/15 10:36:51;;;;;;;5.95;3.33;;;;;;;;;;5069796;28;20176;-62
2022/04/15 10:39:21;;;;;;;7.10;3.10;;;;;;;;;;5068480;28;20102;-62
2022/04/15 10:41:54;;;;;;;7.93;4.00;;;;;;;;;;5069508;28;20776;-62
2022/04/15 10:44:29;;;;;;;10.18;4.30;;;;;;;;;;5069452;28;20040;-61
2022/04/15 10:46:59;;;;;;;8.85;3.97;;;;;;;;;;5068188;28;20045;-62
2022/04/15 10:49:27;;;;;;;8.57;3.80;;;;;;;;;;5069522;28;20048;-62
2022/04/15 10:52:03;;;;;;;13.00;3.92;;;;;;;;;;5069698;28;20076;-62
2022/04/15 10:54:30;;;;;;;6.57;4.10;;;;;;;;;;5051271;28;20052;-62
2022/04/15 10:57:01;;;;;;;6.22;3.35;;;;;;;;;;5068092;28;20101;-62
2022/04/15 11:02:19;;;;;;;9.93;4.15;;;;;;;;;;5068123;28;20063;-63
2022/04/15 11:04:50;;;;;;;11.77;3.92;;;;;;;;;;5067881;28;20044;-62
2022/04/15 11:07:17;;;;;;;8.68;3.53;;;;;;;;;;5069370;28;20089;-61
2022/04/15 11:09:43;;;;;;;6.97;3.80;;;;;;;;;;5067796;28;20056;-62
2022/04/15 11:12:11;;;;;;;8.45;3.85;;;;;;;;;;5068333;28;20124;-63
2022/04/15 11:14:38;;;;;;;7.00;3.92;;;;;;;;;;5069417;28;20063;-62
2022/04/15 11:17:09;;;;;;;8.40;3.58;;;;;;;;;;5069433;28;20102;-63
2022/04/15 11:19:36;;;;;;;6.70;3.40;;;;;;;;;;5067883;28;20056;-62
2022/04/15 11:22:03;;;;;;;7.57;3.53;;;;;;;;;;5069256;28;20669;-61
2022/04/15 11:24:32;;;;;;;7.78;3.42;;;;;;;;;;5050956;28;20120;-62
2022/04/15 11:27:00;;;;;;;7.55;3.60;;;;;;;;;;5069044;28;20048;-62
2022/04/15 11:29:30;;;;;;;7.65;3.50;;;;;;;;;;5067129;28;20064;-62
2022/04/15 11:32:00;;;;;;;9.30;4.10;;;;;;;;;;5068097;28;20398;-63
2022/04/15 11:34:26;;;;;;;6.47;3.45;;;;;;;;;;5068934;28;20048;-62
2022/04/15 11:36:59;;;;;;;8.73;3.53;;;;;;;;;;5068983;28;20040;-63
2022/04/15 11:39:25;;;;;;;5.78;3.90;;;;;;;;;;5069281;28;20044;-62
2022/04/15 11:41:57;;;;;;;7.85;3.90;;;;;;;;;;5067304;28;20494;-62
2022/04/15 11:44:28;;;;;;;6.35;3.67;;;;;;;;;;5067605;28;20050;-62
2022/04/15 11:46:54;;;;;;;9.27;4.15;;;;;;;;;;5067618;28;20173;-61
2022/04/15 11:49:23;;;;;;;8.20;4.18;;;;;;;;;;5068826;28;20082;-62
2022/04/15 11:51:50;;;;;;;7.38;4.25;;;;;;;;;;5068165;28;20048;-62
2022/04/15 11:54:21;;;;;;;9.85;4.60;;;;;;;;;;5069881;28;20033;-62
2022/04/15 11:56:47;;;;;;;7.95;3.92;;;;;;;;;;5068445;28;20410;-63
2022/04/15 11:59:13;;;;;;;8.23;3.97;;;;;;;;;;5068409;28;20044;-63
2022/04/15 12:01:40;;;;;;;9.93;4.10;;;;;;;;;;5069333;28;20436;-63
2022/04/15 12:04:06;;;;;;;7.93;4.40;;;;;;;;;;5069446;28;20068;-63
2022/04/15 12:06:33;;;;;;;8.52;4.20;;;;;;;;;;5068484;28;20044;-62
2022/04/15 12:08:59;;;;;;;8.13;4.28;;;;;;;;;;5069627;28;20042;-64
2022/04/15 12:11:26;;;;;;;10.10;4.05;;;;;;;;;;5068247;28;20051;-65
2022/04/15 12:14:00;;;;;;;7.22;4.10;;;;;;;;;;5067978;28;20051;-63
2022/04/15 12:16:28;;;;;;;7.07;3.92;;;;;;;;;;5069563;28;20040;-62
2022/04/15 12:18:56;;;;;;;6.63;3.50;;;;;;;;;;5068629;28;20084;-63
2022/04/15 12:21:22;;;;;;;5.28;3.20;;;;;;;;;;5068026;28;20506;-63
2022/04/15 12:24:00;;;;;;;11.43;4.15;;;;;;;;;;5068326;28;20120;-62
2022/04/15 12:26:26;;;;;;;8.93;4.10;;;;;;;;;;5069061;28;20060;-63
2022/04/15 12:31:46;;;;;;;6.63;3.80;;;;;;;;;;5069245;28;20406;-63
2022/04/15 12:34:12;;;;;;;8.05;3.75;;;;;;;;;;5051452;28;20080;-62
2022/04/15 12:36:39;;;;;;;9.70;3.60;;;;;;;;;;5069430;28;20072;-63
2022/04/15 12:39:05;;;;;;;11.15;4.20;;;;;;;;;;5069519;28;20048;-62
2022/04/15 12:41:38;;;;;;;9.25;4.80;;;;;;;;;;5053366;28;20044;-63
2022/04/15 12:44:16;;;;;;;8.35;3.95;;;;;;;;;;5071311;28;20041;-62
2022/04/15 12:46:47;;;;;;;9.93;4.22;;;;;;;;;;5070991;28;20048;-63
2022/04/15 12:49:27;;;;;;;7.18;3.70;;;;;;;;;;5071415;28;20099;-63
2022/04/15 12:51:58;;;;;;;8.02;3.70;;;;;;;;;;5070743;28;20517;-63
2022/04/15 12:54:24;;;;;;;9.18;3.85;;;;;;;;;;5071245;28;20055;-62
2022/04/15 12:56:57;;;;;;;11.13;3.90;;;;;;;;;;5072103;28;20045;-62
2022/04/15 12:59:23;;;;;;;10.43;4.07;;;;;;;;;;5054505;28;20044;-62
2022/04/15 13:01:49;;;;;;;14.07;4.03;;;;;;;;;;5054118;28;20561;-62
2022/04/15 13:04:16;;;;;;;8.85;4.10;;;;;;;;;;5054277;28;20048;-63
2022/04/15 13:06:42;;;;;;;8.88;4.00;;;;;;;;;;5072475;28;20044;-62
2022/04/15 13:09:08;;;;;;;10.48;4.50;;;;;;;;;;5053973;28;20127;-62
2022/04/15 13:11:34;;;;;;;11.45;3.67;;;;;;;;;;5072267;28;20127;-63
2022/04/15 13:14:02;;;;;;;9.55;3.55;;;;;;;;;;5072402;28;20048;-63
2022/04/15 13:16:28;;;;;;;9.13;3.55;;;;;;;;;;5071149;28;20040;-63
2022/04/15 13:18:56;;;;;;;8.45;3.85;;;;;;;;;;5071671;28;20048;-62
2022/04/15 13:21:23;;;;;;;8.35;3.65;;;;;;;;;;5071475;28;20040;-62
2022/04/15 13:23:49;;;;;;;7.35;3.63;;;;;;;;;;5071344;28;20444;-62
2022/04/15 13:26:15;;;;;;;9.80;3.33;;;;;;;;;;5071040;28;20503;-62
2022/04/15 13:28:41;;;;;;;14.13;3.63;;;;;;;;;;5070019;28;20046;-63
2022/04/15 13:31:11;;;;;;;10.02;4.00;;;;;;;;;;5069804;28;20088;-63
2022/04/15 13:33:40;;;;;;;9.35;3.53;;;;;;;;;;5071009;28;20083;-61
2022/04/15 13:36:06;;;;;;;9.15;3.67;;;;;;;;;;5071092;28;20040;-62
2022/04/15 13:38:33;;;;;;;10.60;3.45;;;;;;;;;;5053349;28;20056;-62
2022/04/15 13:40:59;;;;;;;13.23;4.40;;;;;;;;;;5069704;28;20045;-62
2022/04/15 13:43:25;;;;;;;8.45;3.72;;;;;;;;;;5069659;28;20044;-62
2022/04/15 13:45:51;;;;;;;9.57;3.50;;;;;;;;;;5069549;28;20166;-63
2022/04/15 13:48:17;;;;;;;11.75;3.40;;;;;;;;;;5070852;28;20255;-62
2022/04/15 13:50:44;;;;;;;9.50;3.58;;;;;;;;;;5070807;28;20053;-63
2022/04/15 13:58:39;;;;;;;14.05;4.70;;;;;;;;;;5070654;28;20414;-62
2022/04/15 14:01:05;;;;;;;10.65;3.88;;;;;;;;;;5070879;28;20128;-62
2022/04/15 14:03:34;;;;;;;11.50;4.40;;;;;;;;;;5070626;28;20048;-62
2022/04/15 14:06:00;;;;;;;12.20;3.97;;;;;;;;;;5070426;28;20079;-62
2022/04/15 14:08:26;;;;;;;9.98;3.85;;;;;;;;;;5070471;28;20300;-62
2022/04/15 14:10:54;;;;;;;12.00;4.75;;;;;;;;;;5069285;28;20482;-62
2022/04/15 14:13:20;;;;;;;12.13;4.10;;;;;;;;;;5069019;28;20045;-61
2022/04/15 14:15:46;;;;;;;12.52;4.57;;;;;;;;;;5069669;28;20040;-61
2022/04/15 14:18:12;;;;;;;12.68;4.15;;;;;;;;;;5072020;28;20052;-61
2022/04/15 14:20:38;;;;;;;8.20;4.03;;;;;;;;;;5071670;28;20534;-61
2022/04/15 14:23:04;;;;;;;11.65;4.25;;;;;;;;;;5072027;28;20036;-61
2022/04/15 14:25:30;;;;;;;12.32;4.68;;;;;;;;;;5071592;28;20036;-61
2022/04/15 14:27:56;;;;;;;12.85;4.57;;;;;;;;;;5037270;28;20044;-61
2022/04/15 14:30:22;;;;;;;12.93;4.68;;;;;;;;;;5070186;28;20060;-61
2022/04/15 14:32:49;;;;;;;10.23;4.57;;;;;;;;;;5053761;28;20040;-61
2022/04/15 14:35:16;;;;;;;8.98;4.57;;;;;;;;;;5070453;28;20121;-61
2022/04/15 14:37:42;;;;;;;10.65;4.68;;;;;;;;;;5071472;28;20052;-61
2022/04/15 14:40:08;;;;;;;13.20;4.53;;;;;;;;;;5071483;28;20040;-61
2022/04/15 14:42:34;;;;;;;8.60;4.38;;;;;;;;;;5053302;28;20396;-61
2022/04/15 14:45:01;;;;;;;11.00;4.82;;;;;;;;;;5053332;28;20041;-61
2022/04/15 14:47:27;;;;;;;8.48;4.57;;;;;;;;;;5053653;28;20072;-61
2022/04/15 14:49:53;;;;;;;9.80;4.93;;;;;;;;;;5063152;28;20115;-61